Latest Weather Observations for Nowra

IDN60901

Issued at 2:11 pm EDT Tuesday 28 February 2017 (issued every 10 minutes, with the page automatically refreshed every 10 minutes)

About weather observations | Map of Canberra area stations | Latest observations for Canberra area | Other Formats
Station Details ID: 068072 Name: NOWRA RAN AIR STATION AWS Lat: -34.95 Lon: 150.54 Height: 109.0 m
Data from the previous 72 hours. | See also: Recent months at Nowra
Date/Time
EDT
Temp
°C
App
Temp
°C
Dew
Point
°C
Rel
Hum
%
Delta-T
°C
Wind Press
QNH
hPa
Press
MSL
hPa
Rain since
9am
mm
Dir  Spd
km/h
Gust
km/h
Spd
kts
Gust
kts
28/02:00pm 24.9 24.3 18.8 69 3.9 E 20 30 11 16 1022.6 1022.3 1.4
28/01:30pm 25.5 24.8 19.4 69 3.9 E 22 26 12 14 1022.8 1022.4 1.2
28/01:00pm 24.2 24.5 20.5 80 2.4 E 19 28 10 15 1023.0 1022.6 1.2
28/12:30pm 22.8 24.0 19.8 83 1.9 ESE 13 17 7 9 1023.4 1023.0 1.2
28/12:18pm 22.9 25.3 22.9 100 0.0 ESE 15 19 8 10 1023.6 1023.2 1.2
28/12:00pm 22.4 23.7 19.2 82 2.0 E 11 19 6 10 1023.8 1023.4 0.4
28/11:43am 23.0 23.8 19.0 78 2.5 SE 13 19 7 10 1023.8 1023.4 0.4
28/11:30am 22.9 24.5 19.1 79 2.4 SE 9 19 5 10 1024.0 1023.6 0.4
28/11:00am 22.6 23.9 19.4 82 2.0 SE 11 17 6 9 1024.2 1023.8 0.4
28/10:30am 21.4 23.1 20.2 93 0.8 SSE 11 17 6 9 1024.3 1023.9 0.4
28/10:00am 20.4 23.2 20.4 100 0.0 NE 6 15 3 8 1024.3 1023.9 0.4
28/09:47am 19.7 21.9 19.7 100 0.0 N 7 11 4 6 1024.3 1023.9 0.4
28/09:30am 20.6 22.3 19.4 93 0.8 SE 9 15 5 8 1024.2 1023.8 0.2
28/09:00am 20.4 22.4 19.2 93 0.8 S 7 13 4 7 1023.9 1023.5 1.0
28/08:39am 20.3 22.5 19.5 95 0.5 S 7 11 4 6 1023.9 1023.5 1.0
28/08:30am 20.0 21.9 19.8 99 0.1 S 9 13 5 7 1023.9 1023.5 1.0
28/08:10am 19.4 21.0 19.2 99 0.1 SE 9 15 5 8 1023.9 1023.5 0.8
28/08:00am 19.4 20.7 19.2 99 0.1 SSE 11 13 6 7 1023.7 1023.3 0.8
28/07:30am 18.9 20.4 18.9 100 0.0 SSW 9 11 5 6 1023.5 1023.1 0.8
28/07:19am 18.7 20.5 18.7 100 0.0 S 7 9 4 5 1023.4 1023.0 0.8
28/07:00am 18.3 19.5 18.3 100 0.0 SSW 9 11 5 6 1023.2 1022.8 0.8
28/06:30am 17.3 19.1 17.3 100 0.0 WNW 4 6 2 3 1023.0 1022.6 0.6
28/06:07am 17.2 18.5 17.2 100 0.0 NW 6 7 3 4 1022.9 1022.5 0.6
28/06:00am 17.4 18.8 17.4 100 0.0 WNW 6 7 3 4 1022.9 1022.5 0.6
28/05:30am 17.1 18.2 17.1 100 0.0 NW 7 9 4 5 1022.8 1022.4 0.6
28/05:00am 17.1 18.4 17.1 100 0.0 NW 6 7 3 4 1022.5 1022.2 0.6
28/04:41am 17.3 18.5 17.3 100 0.0 W 7 11 4 6 1022.4 1022.1 0.6
28/04:30am 17.4 18.8 17.4 100 0.0 WNW 6 9 3 5 1022.5 1022.2 0.6
28/04:00am 17.5 19.0 17.5 100 0.0 WNW 6 9 3 5 1022.6 1022.3 0.6
28/03:36am 17.4 18.6 17.4 100 0.0 WNW 7 9 4 5 1022.9 1022.5 0.6
28/03:30am 17.3 18.7 17.3 100 0.0 WNW 6 9 3 5 1022.9 1022.5 0.6
28/03:00am 17.4 18.8 17.4 100 0.0 NW 6 7 3 4 1023.1 1022.7 0.6
28/02:48am 17.8 19.2 17.8 100 0.0 W 7 11 4 6 1023.2 1022.8 0.6
28/02:30am 17.9 19.0 17.9 100 0.0 NW 9 11 5 6 1023.5 1023.1 0.6
28/02:00am 18.1 18.9 18.1 100 0.0 NW 11 13 6 7 1023.7 1023.3 0.6
28/01:30am 18.0 19.1 18.0 100 0.0 N 9 15 5 8 1024.0 1023.6 0.6
28/01:16am 18.2 18.6 18.2 100 0.0 NNW 13 22 7 12 1023.9 1023.5 0.6
28/01:00am 18.2 20.0 18.2 100 0.0 WNW 6 11 3 6 1023.9 1023.5 0.6
28/12:57am 18.2 20.0 18.2 100 0.0 WNW 6 7 3 4 1024.0 1023.6 0.6
28/12:45am 18.2 19.4 18.2 100 0.0 NNW 9 11 5 6 1024.1 1023.7 0.4
28/12:30am 18.1 18.8 17.9 99 0.1 N 11 13 6 7 1024.2 1023.8 0.2
28/12:25am 18.3 19.4 18.0 98 0.2 N 9 11 5 6 1024.2 1023.8 0.2
28/12:02am 18.9 21.3 17.0 89 1.2 CALM 0 0 0 0 1024.1 1023.7 0.0
28/12:00am 18.8 21.2 16.9 89 1.1 CALM 0 0 0 0 1024.2 1023.8 0.0
 
Date/Time
EDT
Temp
°C
App
Temp
°C
Dew
Point
°C
Rel
Hum
%
Delta-T
°C
Wind Press
QNH
hPa
Press
MSL
hPa
Rain since
9am
mm
Dir  Spd
km/h
Gust
km/h
Spd
kts
Gust
kts
27/11:30pm 19.1 19.9 16.3 84 1.7 SSW 7 11 4 6 1024.1 1023.7 0.0
27/11:00pm 19.4 18.6 16.2 82 1.9 SSW 15 17 8 9 1024.2 1023.8 0.0
27/10:30pm 19.3 18.5 16.0 81 2.0 SSW 15 19 8 10 1024.3 1023.9 0.0
27/10:00pm 18.7 17.8 15.8 83 1.7 SW 15 17 8 9 1024.4 1024.0 0.0
27/09:30pm 18.1 17.8 15.5 85 1.5 SW 11 15 6 8 1024.4 1024.0 0.0
27/09:00pm 18.2 17.9 15.5 84 1.6 SW 11 11 6 6 1024.2 1023.8 0.0
27/08:30pm 18.6 19.3 16.0 85 1.6 SW 7 9 4 5 1024.3 1023.9 0.0
27/08:00pm 20.2 20.8 15.4 74 2.8 S 6 7 3 4 1024.3 1023.9 0.0
27/07:30pm 20.7 20.6 15.0 70 3.4 SSW 9 13 5 7 1023.9 1023.5 0.0
27/07:00pm 21.6 20.3 14.7 65 4.1 SSE 15 17 8 9 1023.7 1023.3 0.0
27/06:30pm 22.4 21.2 15.0 63 4.4 SSE 15 19 8 10 1023.6 1023.2 0.0
27/06:00pm 22.7 20.5 15.0 61 4.6 S 20 26 11 14 1023.5 1023.1 0.0
27/05:30pm 22.7 20.6 14.8 61 4.7 SSE 19 22 10 12 1023.8 1023.4 0.0
27/05:00pm 23.5 21.3 14.5 57 5.3 SSE 19 26 10 14 1023.7 1023.3 0.0
27/04:30pm 23.7 20.8 13.0 51 6.2 SE 20 28 11 15 1023.6 1023.2 0.0
27/04:00pm 23.8 21.1 13.6 52 5.9 S 20 28 11 15 1023.6 1023.2 0.0
27/03:30pm 23.5 20.0 13.4 53 5.9 SSE 24 39 13 21 1023.8 1023.4 0.0
27/03:00pm 24.0 21.4 15.0 57 5.4 SE 22 30 12 16 1024.3 1023.9 0.0
27/02:30pm 24.1 21.6 15.1 57 5.4 SE 22 32 12 17 1024.5 1024.1 0.0
27/02:00pm 23.5 21.5 15.5 60 4.8 SSE 20 28 11 15 1024.6 1024.2 0.0
27/01:35pm 23.7 21.5 16.0 62 4.7 SSE 22 32 12 17 1024.8 1024.4 0.0
27/01:30pm 23.2 20.3 15.0 60 4.9 SSE 24 30 13 16 1024.8 1024.4 0.0
27/01:00pm 22.7 20.5 16.9 70 3.6 SSE 24 32 13 17 1024.9 1024.5 0.0
27/12:35pm 22.5 20.7 17.0 71 3.4 SSE 22 30 12 16 1025.1 1024.7 0.0
27/12:30pm 22.5 21.1 17.0 71 3.4 SSE 20 26 11 14 1025.1 1024.7 0.0
27/12:00pm 22.1 20.7 16.6 71 3.3 SE 19 26 10 14 1025.4 1025.0 0.0
27/11:30am 21.9 21.7 17.7 77 2.6 SSE 15 20 8 11 1025.6 1025.2 0.0
27/11:00am 21.5 21.2 17.3 77 2.6 SSE 15 20 8 11 1025.6 1025.2 0.0
27/10:30am 21.0 21.4 18.2 84 1.7 S 13 17 7 9 1025.7 1025.3 0.0
27/10:00am 20.7 21.4 17.9 84 1.7 SSE 11 17 6 9 1025.6 1025.2 0.0
27/09:30am 19.4 21.0 19.2 99 0.1 S 9 13 5 7 1025.5 1025.1 0.0
27/09:00am 18.9 20.4 18.9 100 0.0 SSW 9 13 5 7 1025.2 1024.8 23.4
27/08:30am 18.5 20.4 18.5 100 0.0 SSW 6 9 3 5 1024.9 1024.5 23.4
27/08:00am 18.0 18.3 18.0 100 0.0 SSW 13 13 7 7 1024.8 1024.4 23.4
27/07:30am 17.4 17.9 17.4 100 0.0 SSW 11 15 6 8 1024.6 1024.2 23.2
27/07:00am 17.3 17.7 17.3 100 0.0 SSW 11 15 6 8 1024.3 1023.9 23.2
27/06:30am 17.2 18.0 17.2 100 0.0 S 9 11 5 6 1024.0 1023.6 23.2
27/06:10am 17.1 18.2 17.1 100 0.0 S 7 9 4 5 1023.8 1023.4 23.0
27/06:00am 17.1 18.2 17.1 100 0.0 S 7 9 4 5 1023.6 1023.2 23.0
27/05:30am 16.9 17.5 16.9 100 0.0 SSE 9 13 5 7 1023.4 1023.0 22.0
27/05:00am 17.1 17.8 17.1 100 0.0 SSE 9 17 5 9 1023.2 1022.8 20.0
27/04:30am 16.8 18.0 16.8 100 0.0 N 6 9 3 5 1023.1 1022.7 17.4
27/04:00am 16.7 17.3 16.7 100 0.0 S 9 19 5 10 1023.2 1022.8 14.8
27/03:30am 16.6 18.5 16.6 100 0.0 SSW 2 7 1 4 1023.4 1023.0 12.4
27/03:00am 16.6 17.1 16.6 100 0.0 SSE 9 13 5 7 1023.4 1023.0 5.2
27/02:30am 16.6 15.6 16.6 100 0.0 SSW 17 24 9 13 1023.6 1023.2 3.0
27/02:23am 16.6 16.0 16.6 100 0.0 SSW 15 19 8 10 1023.7 1023.3 2.0
27/02:22am 16.6 16.0 16.6 100 0.0 SSW 15 20 8 11 1023.7 1023.3 2.0
27/02:00am 16.5 15.5 16.5 100 0.0 S 17 20 9 11 1023.7 1023.3 1.8
27/01:34am 16.5 15.1 16.5 100 0.0 SSW 19 24 10 13 1023.6 1023.2 0.4
27/01:32am 16.5 15.5 16.5 100 0.0 SSW 17 24 9 13 1023.7 1023.3 0.0
27/01:30am 16.5 15.5 16.5 100 0.0 SSW 17 22 9 12 1023.7 1023.3 0.0
27/01:04am 16.7 15.6 16.4 98 0.2 S 17 22 9 12 1024.1 1023.7 0.0
27/01:00am 16.9 15.7 16.1 95 0.5 S 17 24 9 13 1024.1 1023.7 0.0
27/12:32am 16.7 16.2 15.9 95 0.5 SSW 13 19 7 10 1024.3 1023.9 0.0
27/12:30am 16.7 15.7 15.7 94 0.6 SSW 15 19 8 10 1024.3 1023.9 0.0
27/12:29am 16.7 15.8 15.9 95 0.5 SSW 15 19 8 10 1024.2 1023.8 0.0
27/12:03am 16.8 15.7 15.2 90 0.9 SSW 15 20 8 11 1024.3 1023.9 0.0
27/12:00am 16.8 15.7 15.3 91 0.9 SSW 15 20 8 11 1024.2 1023.8 0.0
 
Date/Time
EDT
Temp
°C
App
Temp
°C
Dew
Point
°C
Rel
Hum
%
Delta-T
°C
Wind Press
QNH
hPa
Press
MSL
hPa
Rain since
9am
mm
Dir  Spd
km/h
Gust
km/h
Spd
kts
Gust
kts
26/11:57pm 16.7 15.6 15.2 91 0.9 SSW 15 20 8 11 1024.1 1023.7 0.0
26/11:30pm 16.8 15.1 14.8 88 1.2 SSW 17 22 9 12 1024.4 1024.0 0.0
26/11:00pm 17.9 16.5 14.4 80 2.0 SSW 15 22 8 12 1024.6 1024.2 0.0
26/10:30pm 17.7 15.4 14.2 80 2.0 S 19 24 10 13 1024.6 1024.2 0.0
26/10:00pm 17.8 17.0 14.1 79 2.1 S 11 15 6 8 1024.5 1024.1 0.0
26/09:30pm 17.3 16.2 14.2 82 1.8 SSW 13 17 7 9 1024.2 1023.8 0.0
26/09:00pm 17.6 17.0 14.5 82 1.8 SSW 11 17 6 9 1024.2 1023.8 0.0
26/08:30pm 17.3 16.5 14.0 81 1.9 SSW 11 17 6 9 1023.9 1023.5 0.0
26/08:00pm 18.1 16.8 13.8 76 2.5 S 13 19 7 10 1023.8 1023.4 0.0
26/07:30pm 19.1 16.9 13.3 69 3.3 S 17 20 9 11 1023.6 1023.2 0.0
26/07:00pm 20.0 17.2 13.2 65 3.9 SSE 20 26 11 14 1023.5 1023.1 0.0
26/06:30pm 20.5 17.5 12.5 60 4.5 S 20 28 11 15 1023.3 1022.9 0.0
26/06:00pm 21.3 17.8 12.2 56 5.1 SSE 22 30 12 16 1023.2 1022.8 0.0
26/05:30pm 21.7 18.2 12.3 55 5.3 SSE 22 30 12 16 1022.8 1022.4 0.0
26/05:00pm 22.1 19.1 12.6 55 5.4 SSE 20 28 11 15 1022.6 1022.3 0.0
26/04:30pm 22.2 18.6 13.0 56 5.3 SSE 24 35 13 19 1022.6 1022.3 0.0
26/04:00pm 21.4 18.4 12.5 57 5.0 SSE 20 28 11 15 1022.9 1022.5 0.0
26/03:30pm 21.5 18.2 12.9 58 4.9 SSE 22 32 12 17 1023.0 1022.6 0.0
26/03:00pm 20.8 17.2 13.0 61 4.4 SSE 24 37 13 20 1023.3 1022.9 0.0
26/02:30pm 21.3 18.3 12.7 58 4.9 S 20 30 11 16 1023.4 1023.0 0.0
26/02:00pm 20.9 18.1 13.1 61 4.5 SSE 20 26 11 14 1023.8 1023.4 0.0
26/01:30pm 20.6 17.3 12.8 61 4.4 SSE 22 32 12 17 1023.8 1023.4 0.0
26/01:00pm 20.9 18.3 13.1 61 4.5 SSE 19 24 10 13 1023.9 1023.5 0.0
26/12:30pm 20.9 18.1 14.3 66 3.9 S 22 28 12 15 1023.9 1023.5 0.0
26/12:00pm 20.7 19.0 14.6 68 3.6 SSW 17 20 9 11 1024.0 1023.6 0.0
26/11:30am 19.9 17.9 14.9 73 2.9 S 19 28 10 15 1024.2 1023.8 0.0
26/11:00am 20.3 17.3 14.9 71 3.2 S 24 32 13 17 1024.4 1024.0 0.0
26/10:30am 19.4 16.3 14.6 74 2.8 S 24 37 13 20 1024.5 1024.1 0.0
26/10:00am 19.3 16.5 15.4 78 2.3 SSW 24 33 13 18 1024.2 1023.8 0.0
26/09:30am 18.1 16.3 15.4 84 1.6 SSW 19 24 10 13 1024.0 1023.6 0.0
26/09:00am 17.5 16.1 16.9 96 0.4 SSW 20 26 11 14 1023.7 1023.3 13.4
26/08:30am 17.4 16.5 16.8 96 0.4 SSW 17 26 9 14 1023.5 1023.1 13.4
26/08:00am 16.9 17.1 16.7 99 0.1 SSW 11 15 6 8 1023.3 1022.9 13.4
26/07:30am 16.6 16.7 16.6 100 0.0 SW 11 15 6 8 1023.0 1022.6 13.4
26/07:00am 16.5 17.0 16.5 100 0.0 SW 9 13 5 7 1022.8 1022.4 13.2
26/06:30am 16.3 16.3 16.3 100 0.0 SSW 11 15 6 8 1022.4 1022.1 13.2
26/06:00am 16.4 15.7 16.4 100 0.0 SSW 15 20 8 11 1022.0 1021.7 13.2
26/05:46am 16.4 16.1 16.4 100 0.0 SW 13 17 7 9 1021.9 1021.6 13.2
26/05:30am 16.4 16.5 16.4 100 0.0 SSW 11 17 6 9 1021.8 1021.5 13.2
26/05:27am 16.5 16.6 16.5 100 0.0 SSW 11 15 6 8 1021.8 1021.5 13.2
26/05:00am 16.5 17.4 16.5 100 0.0 WSW 7 9 4 5 1021.6 1021.3 13.2
26/04:30am 16.6 17.5 16.6 100 0.0 SSE 7 7 4 4 1021.6 1021.3 13.2
26/04:00am 16.6 16.4 16.6 100 0.0 SSW 13 19 7 10 1021.2 1020.8 13.2
26/03:30am 16.7 16.5 16.7 100 0.0 SW 13 19 7 10 1021.5 1021.1 13.2
26/03:00am 16.7 17.3 16.7 100 0.0 SW 9 13 5 7 1021.7 1021.4 13.2
26/02:30am 16.7 16.1 16.7 100 0.0 SSW 15 20 8 11 1021.8 1021.5 13.2
26/02:03am 16.7 16.1 16.7 100 0.0 SSW 15 17 8 9 1021.9 1021.6 13.2
26/02:00am 16.7 16.1 16.7 100 0.0 SSW 15 19 8 10 1022.0 1021.7 13.2
26/01:44am 16.6 15.6 16.6 100 0.0 S 17 20 9 11 1022.1 1021.8 13.0
26/01:30am 16.6 15.2 16.6 100 0.0 S 19 24 10 13 1022.1 1021.8 13.0
26/01:00am 16.8 15.3 16.8 100 0.0 S 20 30 11 16 1022.3 1022.0 12.4
26/12:30am 16.8 15.3 16.8 100 0.0 S 20 30 11 16 1022.3 1022.0 10.8
26/12:09am 17.3 16.6 17.3 100 0.0 SSE 17 20 9 11 1022.4 1022.1 8.8
26/12:02am 17.2 16.4 17.2 100 0.0 SSE 17 20 9 11 1022.4 1022.1 8.0
26/12:00am 17.2 16.8 17.2 100 0.0 SSE 15 20 8 11 1022.4 1022.1 7.6
 
Date/Time
EDT
Temp
°C
App
Temp
°C
Dew
Point
°C
Rel
Hum
%
Delta-T
°C
Wind Press
QNH
hPa
Press
MSL
hPa
Rain since
9am
mm
Dir  Spd
km/h
Gust
km/h
Spd
kts
Gust
kts
25/11:30pm 17.2 16.8 17.2 100 0.0 S 15 20 8 11 1022.3 1022.0 4.6
25/11:00pm 17.2 16.1 17.2 100 0.0 S 19 22 10 12 1022.2 1021.9 0.8
25/10:53pm 17.3 16.0 17.3 100 0.0 S 20 28 11 15 1022.2 1021.9 0.4
25/10:30pm 17.6 16.4 17.6 100 0.0 SSE 20 26 11 14 1022.0 1021.7 0.4
25/10:28pm 17.6 16.4 17.6 100 0.0 S 20 26 11 14 1022.0 1021.7 0.4
25/10:00pm 17.5 16.9 17.5 100 0.0 S 17 20 9 11 1021.9 1021.6 0.2
25/09:58pm 17.6 17.0 17.6 100 0.0 S 17 20 9 11 1021.9 1021.6 0.0
25/09:30pm 17.8 17.7 17.8 100 0.0 SSW 15 24 8 13 1021.9 1021.6 0.0
25/09:00pm 17.8 17.7 17.8 100 0.0 S 15 19 8 10 1021.7 1021.4 0.0
25/08:30pm 17.8 17.7 17.8 100 0.0 S 15 20 8 11 1021.4 1021.0 0.0
25/08:00pm 17.7 16.8 17.7 100 0.0 SSW 19 24 10 13 1021.0 1020.6 0.0
25/07:30pm 17.7 17.2 17.7 100 0.0 SSW 17 24 9 13 1020.8 1020.4 0.0
25/07:24pm 17.7 17.2 17.7 100 0.0 SSW 17 24 9 13 1020.8 1020.4 0.0
25/07:21pm 17.6 17.0 17.6 100 0.0 SSW 17 24 9 13 1020.8 1020.4 0.0
25/07:16pm 17.6 17.0 17.6 100 0.0 SSW 17 22 9 12 1020.8 1020.4 0.0
25/07:13pm 17.7 17.2 17.7 100 0.0 SSW 17 24 9 13 1020.8 1020.4 0.0
25/07:06pm 17.7 16.8 17.7 100 0.0 SSW 19 28 10 15 1020.8 1020.4 0.0
25/07:00pm 17.7 16.6 17.7 100 0.0 SSW 20 30 11 16 1020.7 1020.3 0.0
25/06:36pm 18.1 17.1 17.5 96 0.4 S 19 28 10 15 1020.6 1020.2 0.0
25/06:30pm 18.6 16.6 16.4 87 1.3 S 22 32 12 17 1020.6 1020.2 0.0
25/06:22pm 19.1 15.9 15.4 79 2.2 S 26 35 14 19 1020.5 1020.1 0.0
25/06:00pm 20.2 18.0 14.8 71 3.2 S 20 28 11 15 1020.6 1020.2 0.0
25/05:30pm 20.4 18.2 14.5 69 3.5 S 19 28 10 15 1020.7 1020.3 0.0
25/05:00pm 20.5 19.4 14.2 67 3.7 SSE 13 19 7 10 1020.8 1020.4 0.0
25/04:30pm 20.3 18.9 13.3 64 4.0 S 13 19 7 10 1020.8 1020.4 0.0
25/04:00pm 20.2 18.7 13.2 64 4.0 S 13 17 7 9 1020.8 1020.4 0.0
25/03:30pm 19.9 16.6 12.9 64 4.0 S 22 32 12 17 1021.0 1020.6 0.0
25/03:00pm 20.0 16.3 12.7 63 4.1 S 24 32 13 17 1021.2 1020.8 0.0
25/02:30pm 19.7 15.9 12.5 63 4.1 S 24 35 13 19 1021.5 1021.1 0.0

Latest Capital City Observations: Canberra | Sydney | Melbourne | Brisbane | Adelaide | Perth | Hobart | Darwin

Other Formats:

Comma delimited format used in spreadsheet applications
http://www.bom.gov.au/fwo/IDN60903/IDN60903.94750.axf

JavaScript Object Notation format (JSON) in row-major order
http://www.bom.gov.au/fwo/IDN60903/IDN60903.94750.json